sensor_id;sensor_type;location;lat;lon;timestamp;pressure;altitude;pressure_sealevel;temperature;humidity
57114;BME280;42994;51.606;9.988;2023-01-16T00:00:53;97429.06;;;2.67;100.00
57114;BME280;42994;51.606;9.988;2023-01-16T00:03:20;97437.56;;;2.63;100.00
57114;BME280;42994;51.606;9.988;2023-01-16T00:05:47;97441.19;;;2.62;100.00
57114;BME280;42994;51.606;9.988;2023-01-16T00:08:14;97436.34;;;2.65;100.00
57114;BME280;42994;51.606;9.988;2023-01-16T00:10:42;97418.47;;;2.67;100.00
57114;BME280;42994;51.606;9.988;2023-01-16T00:13:10;97420.13;;;2.68;100.00
57114;BME280;42994;51.606;9.988;2023-01-16T00:15:36;97419.03;;;2.63;100.00
57114;BME280;42994;51.606;9.988;2023-01-16T00:18:03;97411.53;;;2.66;100.00
57114;BME280;42994;51.606;9.988;2023-01-16T00:20:30;97403.69;;;2.73;100.00
57114;BME280;42994;51.606;9.988;2023-01-16T00:22:57;97402.16;;;2.64;100.00
57114;BME280;42994;51.606;9.988;2023-01-16T00:25:23;97393.22;;;2.65;100.00
57114;BME280;42994;51.606;9.988;2023-01-16T00:27:51;97389.94;;;2.63;100.00
57114;BME280;42994;51.606;9.988;2023-01-16T00:30:18;97382.34;;;2.60;100.00
57114;BME280;42994;51.606;9.988;2023-01-16T00:32:45;97385.81;;;2.60;100.00
57114;BME280;42994;51.606;9.988;2023-01-16T00:35:12;97383.00;;;2.62;100.00
57114;BME280;42994;51.606;9.988;2023-01-16T00:37:39;97377.34;;;2.65;100.00
57114;BME280;42994;51.606;9.988;2023-01-16T00:40:06;97376.16;;;2.67;100.00
57114;BME280;42994;51.606;9.988;2023-01-16T00:42:33;97374.13;;;2.69;100.00
57114;BME280;42994;51.606;9.988;2023-01-16T00:45:01;97363.09;;;2.66;100.00
57114;BME280;42994;51.606;9.988;2023-01-16T00:47:28;97366.47;;;2.75;100.00
57114;BME280;42994;51.606;9.988;2023-01-16T00:49:54;97355.44;;;2.71;100.00
57114;BME280;42994;51.606;9.988;2023-01-16T00:52:21;97352.25;;;2.76;100.00
57114;BME280;42994;51.606;9.988;2023-01-16T00:54:48;97350.16;;;2.71;100.00
57114;BME280;42994;51.606;9.988;2023-01-16T00:57:15;97350.59;;;2.75;100.00
57114;BME280;42994;51.606;9.988;2023-01-16T00:59:41;97343.75;;;2.80;100.00
57114;BME280;42994;51.606;9.988;2023-01-16T01:02:09;97345.66;;;2.72;100.00
57114;BME280;42994;51.606;9.988;2023-01-16T01:04:36;97356.72;;;2.75;100.00
57114;BME280;42994;51.606;9.988;2023-01-16T01:07:03;97342.41;;;2.69;100.00
57114;BME280;42994;51.606;9.988;2023-01-16T01:09:29;97352.16;;;2.69;100.00
57114;BME280;42994;51.606;9.988;2023-01-16T01:11:57;97353.88;;;2.77;100.00
57114;BME280;42994;51.606;9.988;2023-01-16T01:14:24;97342.69;;;2.75;100.00
57114;BME280;42994;51.606;9.988;2023-01-16T01:16:51;97345.78;;;2.78;100.00
57114;BME280;42994;51.606;9.988;2023-01-16T01:19:19;97340.59;;;2.85;100.00
57114;BME280;42994;51.606;9.988;2023-01-16T01:21:46;97341.13;;;2.80;100.00
57114;BME280;42994;51.606;9.988;2023-01-16T01:24:13;97334.38;;;2.78;100.00
57114;BME280;42994;51.606;9.988;2023-01-16T01:26:39;97329.09;;;2.78;100.00
57114;BME280;42994;51.606;9.988;2023-01-16T01:29:06;97326.63;;;2.76;100.00
57114;BME280;42994;51.606;9.988;2023-01-16T01:31:33;97327.13;;;2.86;100.00
57114;BME280;42994;51.606;9.988;2023-01-16T01:33:59;97314.38;;;2.75;100.00
57114;BME280;42994;51.606;9.988;2023-01-16T01:36:27;97316.03;;;2.76;100.00
57114;BME280;42994;51.606;9.988;2023-01-16T01:38:54;97311.38;;;2.78;100.00
57114;BME280;42994;51.606;9.988;2023-01-16T01:41:21;97311.09;;;2.73;100.00
57114;BME280;42994;51.606;9.988;2023-01-16T01:43:49;97306.09;;;2.78;100.00
57114;BME280;42994;51.606;9.988;2023-01-16T01:46:21;97304.69;;;2.82;100.00
57114;BME280;42994;51.606;9.988;2023-01-16T01:49:00;97299.41;;;2.82;100.00
57114;BME280;42994;51.606;9.988;2023-01-16T01:51:28;97290.09;;;2.86;100.00
57114;BME280;42994;51.606;9.988;2023-01-16T01:53:59;97279.25;;;2.81;100.00
57114;BME280;42994;51.606;9.988;2023-01-16T01:56:31;97282.91;;;2.80;100.00
57114;BME280;42994;51.606;9.988;2023-01-16T01:59:01;97281.47;;;2.78;100.00
57114;BME280;42994;51.606;9.988;2023-01-16T02:01:29;97275.53;;;2.76;100.00
57114;BME280;42994;51.606;9.988;2023-01-16T02:04:00;97267.59;;;2.76;100.00
57114;BME280;42994;51.606;9.988;2023-01-16T02:06:32;97265.31;;;2.73;100.00
57114;BME280;42994;51.606;9.988;2023-01-16T02:09:01;97258.47;;;2.78;100.00
57114;BME280;42994;51.606;9.988;2023-01-16T02:11:31;97257.66;;;2.78;100.00
57114;BME280;42994;51.606;9.988;2023-01-16T02:14:04;97259.66;;;2.76;100.00
57114;BME280;42994;51.606;9.988;2023-01-16T02:16:31;97243.56;;;2.77;100.00
57114;BME280;42994;51.606;9.988;2023-01-16T02:19:27;97236.03;;;2.74;100.00
57114;BME280;42994;51.606;9.988;2023-01-16T02:25:23;97216.13;;;2.78;100.00
57114;BME280;42994;51.606;9.988;2023-01-16T02:28:26;97214.88;;;2.74;100.00
57114;BME280;42994;51.606;9.988;2023-01-16T02:31:08;97211.59;;;2.72;100.00
57114;BME280;42994;51.606;9.988;2023-01-16T02:33:51;97203.66;;;2.72;100.00
57114;BME280;42994;51.606;9.988;2023-01-16T02:36:32;97205.63;;;2.70;100.00
57114;BME280;42994;51.606;9.988;2023-01-16T02:39:08;97204.19;;;2.67;100.00
57114;BME280;42994;51.606;9.988;2023-01-16T02:41:46;97193.44;;;2.69;100.00
57114;BME280;42994;51.606;9.988;2023-01-16T02:44:23;97199.91;;;2.66;100.00
57114;BME280;42994;51.606;9.988;2023-01-16T02:47:04;97189.72;;;2.63;100.00
57114;BME280;42994;51.606;9.988;2023-01-16T02:49:37;97176.31;;;2.65;100.00
57114;BME280;42994;51.606;9.988;2023-01-16T02:52:11;97175.47;;;2.64;100.00
57114;BME280;42994;51.606;9.988;2023-01-16T02:54:42;97171.56;;;2.60;100.00
57114;BME280;42994;51.606;9.988;2023-01-16T02:57:14;97166.44;;;2.59;100.00
57114;BME280;42994;51.606;9.988;2023-01-16T02:59:42;97165.19;;;2.55;100.00
57114;BME280;42994;51.606;9.988;2023-01-16T03:02:11;97152.59;;;2.57;100.00
57114;BME280;42994;51.606;9.988;2023-01-16T03:04:44;97147.31;;;2.57;100.00
57114;BME280;42994;51.606;9.988;2023-01-16T03:10:15;97133.44;;;2.55;100.00
57114;BME280;42994;51.606;9.988;2023-01-16T03:12:51;97131.63;;;2.55;100.00
57114;BME280;42994;51.606;9.988;2023-01-16T03:15:24;97124.53;;;2.56;100.00
57114;BME280;42994;51.606;9.988;2023-01-16T03:18:06;97130.81;;;2.55;100.00
57114;BME280;42994;51.606;9.988;2023-01-16T03:20:47;97118.13;;;2.50;100.00
57114;BME280;42994;51.606;9.988;2023-01-16T03:23:23;97112.84;;;2.50;100.00
57114;BME280;42994;51.606;9.988;2023-01-16T03:25:58;97107.38;;;2.52;100.00
57114;BME280;42994;51.606;9.988;2023-01-16T03:28:33;97108.75;;;2.47;100.00
57114;BME280;42994;51.606;9.988;2023-01-16T03:31:07;97104.50;;;2.46;100.00
57114;BME280;42994;51.606;9.988;2023-01-16T03:33:42;97105.31;;;2.47;100.00
57114;BME280;42994;51.606;9.988;2023-01-16T03:36:13;97093.47;;;2.43;100.00
57114;BME280;42994;51.606;9.988;2023-01-16T03:38:42;97099.19;;;2.46;100.00
57114;BME280;42994;51.606;9.988;2023-01-16T03:41:15;97086.16;;;2.45;100.00
57114;BME280;42994;51.606;9.988;2023-01-16T03:43:45;97087.16;;;2.44;100.00
57114;BME280;42994;51.606;9.988;2023-01-16T03:46:17;97082.03;;;2.42;100.00
57114;BME280;42994;51.606;9.988;2023-01-16T03:48:49;97076.75;;;2.42;100.00
57114;BME280;42994;51.606;9.988;2023-01-16T03:51:21;97062.53;;;2.43;100.00
57114;BME280;42994;51.606;9.988;2023-01-16T03:53:57;97063.53;;;2.42;100.00
57114;BME280;42994;51.606;9.988;2023-01-16T03:56:30;97060.91;;;2.42;100.00
57114;BME280;42994;51.606;9.988;2023-01-16T03:59:00;97055.78;;;2.41;100.00
57114;BME280;42994;51.606;9.988;2023-01-16T04:01:34;97063.09;;;2.39;100.00
57114;BME280;42994;51.606;9.988;2023-01-16T04:04:06;97055.34;;;2.37;100.00
57114;BME280;42994;51.606;9.988;2023-01-16T04:06:37;97051.06;;;2.36;100.00
57114;BME280;42994;51.606;9.988;2023-01-16T04:09:10;97036.66;;;2.39;100.00
57114;BME280;42994;51.606;9.988;2023-01-16T04:11:39;97036.03;;;2.37;100.00
57114;BME280;42994;51.606;9.988;2023-01-16T04:14:08;97034.19;;;2.37;100.00
57114;BME280;42994;51.606;9.988;2023-01-16T04:16:37;97026.66;;;2.34;100.00
57114;BME280;42994;51.606;9.988;2023-01-16T04:19:07;97020.34;;;2.35;100.00
57114;BME280;42994;51.606;9.988;2023-01-16T04:21:37;97022.38;;;2.33;100.00
57114;BME280;42994;51.606;9.988;2023-01-16T04:24:05;97018.53;;;2.36;100.00
57114;BME280;42994;51.606;9.988;2023-01-16T04:26:31;97024.63;;;2.36;100.00
57114;BME280;42994;51.606;9.988;2023-01-16T04:28:58;97017.53;;;2.37;100.00
57114;BME280;42994;51.606;9.988;2023-01-16T04:31:25;97013.69;;;2.39;100.00
57114;BME280;42994;51.606;9.988;2023-01-16T04:33:53;97011.25;;;2.38;100.00
57114;BME280;42994;51.606;9.988;2023-01-16T04:36:21;97003.50;;;2.36;100.00
57114;BME280;42994;51.606;9.988;2023-01-16T04:38:48;97001.03;;;2.35;100.00
57114;BME280;42994;51.606;9.988;2023-01-16T04:41:14;96993.28;;;2.33;100.00
57114;BME280;42994;51.606;9.988;2023-01-16T04:44:01;96991.03;;;2.30;100.00
57114;BME280;42994;51.606;9.988;2023-01-16T04:46:28;96984.34;;;2.34;100.00
57114;BME280;42994;51.606;9.988;2023-01-16T04:48:55;96973.53;;;2.29;100.00
57114;BME280;42994;51.606;9.988;2023-01-16T04:51:23;96967.25;;;2.30;100.00
57114;BME280;42994;51.606;9.988;2023-01-16T04:53:50;96970.50;;;2.32;100.00
57114;BME280;42994;51.606;9.988;2023-01-16T04:56:17;96961.38;;;2.35;100.00
57114;BME280;42994;51.606;9.988;2023-01-16T04:58:46;96958.72;;;2.35;100.00
57114;BME280;42994;51.606;9.988;2023-01-16T05:01:15;96952.63;;;2.34;100.00
57114;BME280;42994;51.606;9.988;2023-01-16T05:03:41;96950.16;;;2.33;100.00
57114;BME280;42994;51.606;9.988;2023-01-16T05:06:08;96930.00;;;2.31;100.00
57114;BME280;42994;51.606;9.988;2023-01-16T05:08:36;96940.59;;;2.31;100.00
57114;BME280;42994;51.606;9.988;2023-01-16T05:11:03;96950.16;;;2.33;100.00
57114;BME280;42994;51.606;9.988;2023-01-16T05:13:29;96936.75;;;2.34;100.00
57114;BME280;42994;51.606;9.988;2023-01-16T05:15:56;96942.06;;;2.34;100.00
57114;BME280;42994;51.606;9.988;2023-01-16T05:18:23;96929.47;;;2.36;100.00
57114;BME280;42994;51.606;9.988;2023-01-16T05:20:52;96923.53;;;2.34;100.00
57114;BME280;42994;51.606;9.988;2023-01-16T05:23:19;96920.28;;;2.32;100.00
57114;BME280;42994;51.606;9.988;2023-01-16T05:25:47;96919.25;;;2.33;100.00
57114;BME280;42994;51.606;9.988;2023-01-16T05:28:14;96923.09;;;2.30;100.00
57114;BME280;42994;51.606;9.988;2023-01-16T05:30:41;96915.00;;;2.32;100.00
57114;BME280;42994;51.606;9.988;2023-01-16T05:33:07;96902.94;;;2.29;100.00
57114;BME280;42994;51.606;9.988;2023-01-16T05:35:34;96910.31;;;2.34;100.00
57114;BME280;42994;51.606;9.988;2023-01-16T05:38:00;96912.13;;;2.34;100.00
57114;BME280;42994;51.606;9.988;2023-01-16T05:40:27;96904.84;;;2.36;100.00
57114;BME280;42994;51.606;9.988;2023-01-16T05:42:55;96903.03;;;2.36;100.00
57114;BME280;42994;51.606;9.988;2023-01-16T05:45:22;96895.28;;;2.35;100.00
57114;BME280;42994;51.606;9.988;2023-01-16T05:47:48;96883.28;;;2.32;100.00
57114;BME280;42994;51.606;9.988;2023-01-16T05:50:15;96885.31;;;2.37;100.00
57114;BME280;42994;51.606;9.988;2023-01-16T05:52:41;96886.34;;;2.36;100.00
57114;BME280;42994;51.606;9.988;2023-01-16T05:55:08;96879.59;;;2.33;100.00
57114;BME280;42994;51.606;9.988;2023-01-16T05:57:35;96878.59;;;2.34;100.00
57114;BME280;42994;51.606;9.988;2023-01-16T06:00:04;96870.66;;;2.34;100.00
57114;BME280;42994;51.606;9.988;2023-01-16T06:02:31;96864.75;;;2.32;100.00
57114;BME280;42994;51.606;9.988;2023-01-16T06:04:58;96856.84;;;2.32;100.00
57114;BME280;42994;51.606;9.988;2023-01-16T06:07:25;96857.44;;;2.34;100.00
57114;BME280;42994;51.606;9.988;2023-01-16T06:09:51;96854.81;;;2.34;100.00
57114;BME280;42994;51.606;9.988;2023-01-16T06:12:19;96852.16;;;2.34;100.00
57114;BME280;42994;51.606;9.988;2023-01-16T06:14:46;96837.91;;;2.35;100.00
57114;BME280;42994;51.606;9.988;2023-01-16T06:17:14;96839.13;;;2.33;100.00
57114;BME280;42994;51.606;9.988;2023-01-16T06:19:41;96832.19;;;2.31;100.00
57114;BME280;42994;51.606;9.988;2023-01-16T06:22:07;96824.50;;;2.30;100.00
57114;BME280;42994;51.606;9.988;2023-01-16T06:24:34;96813.25;;;2.28;100.00
57114;BME280;42994;51.606;9.988;2023-01-16T06:27:01;96809.81;;;2.27;100.00
57114;BME280;42994;51.606;9.988;2023-01-16T06:29:27;96808.19;;;2.26;100.00
57114;BME280;42994;51.606;9.988;2023-01-16T06:31:54;96799.25;;;2.27;100.00
57114;BME280;42994;51.606;9.988;2023-01-16T06:34:22;96795.97;;;2.25;100.00
57114;BME280;42994;51.606;9.988;2023-01-16T06:36:49;96798.19;;;2.22;100.00
57114;BME280;42994;51.606;9.988;2023-01-16T06:39:15;96792.09;;;2.21;100.00
57114;BME280;42994;51.606;9.988;2023-01-16T06:41:42;96793.91;;;2.21;100.00
57114;BME280;42994;51.606;9.988;2023-01-16T06:44:09;96781.72;;;2.20;100.00
57114;BME280;42994;51.606;9.988;2023-01-16T06:46:36;96785.53;;;2.17;100.00
57114;BME280;42994;51.606;9.988;2023-01-16T06:49:03;96785.31;;;2.12;100.00
57114;BME280;42994;51.606;9.988;2023-01-16T06:51:31;96792.03;;;2.15;100.00
57114;BME280;42994;51.606;9.988;2023-01-16T06:53:57;96775.75;;;2.11;100.00
57114;BME280;42994;51.606;9.988;2023-01-16T06:56:24;96777.19;;;2.14;100.00
57114;BME280;42994;51.606;9.988;2023-01-16T06:58:52;96782.06;;;2.10;100.00
57114;BME280;42994;51.606;9.988;2023-01-16T07:01:18;96775.69;;;2.04;100.00
57114;BME280;42994;51.606;9.988;2023-01-16T07:03:45;96768.00;;;2.09;100.00
57114;BME280;42994;51.606;9.988;2023-01-16T07:06:11;96757.00;;;2.06;100.00
57114;BME280;42994;51.606;9.988;2023-01-16T07:08:40;96754.78;;;2.09;100.00
57114;BME280;42994;51.606;9.988;2023-01-16T07:11:08;96756.63;;;2.09;100.00
57114;BME280;42994;51.606;9.988;2023-01-16T07:13:35;96750.34;;;2.10;100.00
57114;BME280;42994;51.606;9.988;2023-01-16T07:16:02;96742.97;;;2.05;100.00
57114;BME280;42994;51.606;9.988;2023-01-16T07:18:46;96744.22;;;2.09;100.00
57114;BME280;42994;51.606;9.988;2023-01-16T07:21:32;96727.38;;;2.10;100.00
57114;BME280;42994;51.606;9.988;2023-01-16T07:24:19;96727.56;;;2.09;100.00
57114;BME280;42994;51.606;9.988;2023-01-16T07:26:50;96728.97;;;2.11;100.00
57114;BME280;42994;51.606;9.988;2023-01-16T07:29:17;96734.91;;;2.14;100.00
57114;BME280;42994;51.606;9.988;2023-01-16T07:31:44;96722.91;;;2.11;100.00
57114;BME280;42994;51.606;9.988;2023-01-16T07:34:10;96718.22;;;2.13;100.00
57114;BME280;42994;51.606;9.988;2023-01-16T07:36:37;96728.97;;;2.11;100.00
57114;BME280;42994;51.606;9.988;2023-01-16T07:39:04;96719.69;;;2.16;100.00
57114;BME280;42994;51.606;9.988;2023-01-16T07:41:32;96720.09;;;2.19;100.00
57114;BME280;42994;51.606;9.988;2023-01-16T07:43:58;96714.41;;;2.16;100.00
57114;BME280;42994;51.606;9.988;2023-01-16T07:46:25;96712.38;;;2.18;100.00
57114;BME280;42994;51.606;9.988;2023-01-16T07:48:53;96708.69;;;2.19;100.00
57114;BME280;42994;51.606;9.988;2023-01-16T07:51:22;96707.69;;;2.20;100.00
57114;BME280;42994;51.606;9.988;2023-01-16T07:53:49;96701.19;;;2.16;100.00
57114;BME280;42994;51.606;9.988;2023-01-16T07:56:15;96702.78;;;2.17;100.00
57114;BME280;42994;51.606;9.988;2023-01-16T07:58:44;96701.59;;;2.19;100.00
57114;BME280;42994;51.606;9.988;2023-01-16T08:01:11;96691.84;;;2.20;100.00
57114;BME280;42994;51.606;9.988;2023-01-16T08:03:38;96684.47;;;2.15;100.00
57114;BME280;42994;51.606;9.988;2023-01-16T08:06:05;96693.03;;;2.17;100.00
57114;BME280;42994;51.606;9.988;2023-01-16T08:08:32;96670.09;;;2.18;100.00
57114;BME280;42994;51.606;9.988;2023-01-16T08:11:00;96669.88;;;2.19;100.00
57114;BME280;42994;51.606;9.988;2023-01-16T08:13:50;96660.31;;;2.18;100.00
57114;BME280;42994;51.606;9.988;2023-01-16T08:16:17;96659.50;;;2.18;100.00
57114;BME280;42994;51.606;9.988;2023-01-16T08:18:44;96654.03;;;2.19;100.00
57114;BME280;42994;51.606;9.988;2023-01-16T08:21:14;96648.09;;;2.17;100.00
57114;BME280;42994;51.606;9.988;2023-01-16T08:23:41;96645.25;;;2.19;100.00
57114;BME280;42994;51.606;9.988;2023-01-16T08:26:07;96651.81;;;2.23;100.00
57114;BME280;42994;51.606;9.988;2023-01-16T08:28:34;96640.59;;;2.21;100.00
57114;BME280;42994;51.606;9.988;2023-01-16T08:31:04;96633.50;;;2.21;100.00
57114;BME280;42994;51.606;9.988;2023-01-16T08:33:34;96628.22;;;2.21;100.00
57114;BME280;42994;51.606;9.988;2023-01-16T08:36:01;96630.03;;;2.21;100.00
57114;BME280;42994;51.606;9.988;2023-01-16T08:38:28;96630.44;;;2.24;100.00
57114;BME280;42994;51.606;9.988;2023-01-16T08:40:54;96627.00;;;2.24;100.00
57114;BME280;42994;51.606;9.988;2023-01-16T08:43:21;96620.91;;;2.23;100.00
57114;BME280;42994;51.606;9.988;2023-01-16T08:46:16;96618.69;;;2.27;100.00
57114;BME280;42994;51.606;9.988;2023-01-16T08:49:00;96613.59;;;2.25;100.00
57114;BME280;42994;51.606;9.988;2023-01-16T08:51:45;96602.81;;;2.27;100.00
57114;BME280;42994;51.606;9.988;2023-01-16T08:54:11;96604.03;;;2.31;100.00
57114;BME280;42994;51.606;9.988;2023-01-16T08:56:38;96593.47;;;2.31;100.00
57114;BME280;42994;51.606;9.988;2023-01-16T08:59:08;96590.03;;;2.30;100.00
57114;BME280;42994;51.606;9.988;2023-01-16T09:01:36;96583.69;;;2.31;100.00
57114;BME280;42994;51.606;9.988;2023-01-16T09:04:04;96578.84;;;2.35;100.00
57114;BME280;42994;51.606;9.988;2023-01-16T09:06:30;96570.72;;;2.37;100.00
57114;BME280;42994;51.606;9.988;2023-01-16T09:09:01;96563.19;;;2.40;100.00
57114;BME280;42994;51.606;9.988;2023-01-16T09:11:28;96554.44;;;2.40;100.00
57114;BME280;42994;51.606;9.988;2023-01-16T09:14:12;96549.59;;;2.43;100.00
57114;BME280;42994;51.606;9.988;2023-01-16T09:16:40;96545.72;;;2.46;100.00
57114;BME280;42994;51.606;9.988;2023-01-16T09:19:06;96543.06;;;2.46;100.00
57114;BME280;42994;51.606;9.988;2023-01-16T09:21:33;96542.66;;;2.49;100.00
57114;BME280;42994;51.606;9.988;2023-01-16T09:23:59;96533.72;;;2.50;100.00
57114;BME280;42994;51.606;9.988;2023-01-16T09:26:27;96526.63;;;2.50;100.00
57114;BME280;42994;51.606;9.988;2023-01-16T09:28:54;96535.16;;;2.53;100.00
57114;BME280;42994;51.606;9.988;2023-01-16T09:31:20;96534.13;;;2.54;100.00
57114;BME280;42994;51.606;9.988;2023-01-16T09:33:48;96532.13;;;2.56;100.00
57114;BME280;42994;51.606;9.988;2023-01-16T09:36:17;96506.28;;;2.58;100.00
57114;BME280;42994;51.606;9.988;2023-01-16T09:38:44;96505.25;;;2.59;100.00
57114;BME280;42994;51.606;9.988;2023-01-16T09:41:14;96504.84;;;2.62;100.00
57114;BME280;42994;51.606;9.988;2023-01-16T09:44:03;96495.91;;;2.63;100.00
57114;BME280;42994;51.606;9.988;2023-01-16T09:46:34;96489.38;;;2.65;100.00
57114;BME280;42994;51.606;9.988;2023-01-16T09:49:10;96479.63;;;2.66;100.00
57114;BME280;42994;51.606;9.988;2023-01-16T09:51:45;96473.31;;;2.67;100.00
57114;BME280;42994;51.606;9.988;2023-01-16T09:54:39;96459.25;;;2.66;100.00
57114;BME280;42994;51.606;9.988;2023-01-16T09:57:26;96461.72;;;2.68;100.00
57114;BME280;42994;51.606;9.988;2023-01-16T10:00:15;96440.53;;;2.68;100.00
57114;BME280;42994;51.606;9.988;2023-01-16T10:02:42;96431.59;;;2.69;100.00
57114;BME280;42994;51.606;9.988;2023-01-16T10:05:11;96426.31;;;2.69;100.00
57114;BME280;42994;51.606;9.988;2023-01-16T10:07:47;96415.34;;;2.72;100.00
57114;BME280;42994;51.606;9.988;2023-01-16T10:10:35;96401.88;;;2.74;100.00
57114;BME280;42994;51.606;9.988;2023-01-16T10:13:11;96395.78;;;2.73;100.00
57114;BME280;42994;51.606;9.988;2023-01-16T10:15:48;96389.28;;;2.76;100.00
57114;BME280;42994;51.606;9.988;2023-01-16T10:18:26;96371.56;;;2.76;100.00
57114;BME280;42994;51.606;9.988;2023-01-16T10:21:22;96379.47;;;2.83;100.00
57114;BME280;42994;51.606;9.988;2023-01-16T10:23:53;96381.91;;;2.84;100.00
57114;BME280;42994;51.606;9.988;2023-01-16T10:26:27;96370.13;;;2.87;100.00
57114;BME280;42994;51.606;9.988;2023-01-16T10:29:06;96360.53;;;2.93;100.00
57114;BME280;42994;51.606;9.988;2023-01-16T10:31:39;96364.00;;;2.93;100.00
57114;BME280;42994;51.606;9.988;2023-01-16T10:34:10;96348.09;;;3.00;100.00
57114;BME280;42994;51.606;9.988;2023-01-16T10:36:45;96340.75;;;3.02;100.00
57114;BME280;42994;51.606;9.988;2023-01-16T10:39:15;96342.56;;;3.08;100.00
57114;BME280;42994;51.606;9.988;2023-01-16T10:41:46;96330.13;;;3.15;100.00
57114;BME280;42994;51.606;9.988;2023-01-16T10:44:31;96329.09;;;3.16;100.00
57114;BME280;42994;51.606;9.988;2023-01-16T10:47:16;96328.66;;;3.19;100.00
57114;BME280;42994;51.606;9.988;2023-01-16T10:50:01;96315.81;;;3.23;100.00
57114;BME280;42994;51.606;9.988;2023-01-16T10:52:29;96302.56;;;3.23;100.00
57114;BME280;42994;51.606;9.988;2023-01-16T10:54:57;96293.84;;;3.22;100.00
57114;BME280;42994;51.606;9.988;2023-01-16T10:57:26;96282.63;;;3.27;100.00
57114;BME280;42994;51.606;9.988;2023-01-16T10:59:56;96270.78;;;3.30;100.00
57114;BME280;42994;51.606;9.988;2023-01-16T11:02:29;96267.13;;;3.31;100.00
57114;BME280;42994;51.606;9.988;2023-01-16T11:04:56;96246.75;;;3.31;100.00
57114;BME280;42994;51.606;9.988;2023-01-16T11:07:27;96243.22;;;3.37;100.00
57114;BME280;42994;51.606;9.988;2023-01-16T11:09:56;96227.34;;;3.37;100.00
57114;BME280;42994;51.606;9.988;2023-01-16T11:12:25;96213.09;;;3.38;100.00
57114;BME280;42994;51.606;9.988;2023-01-16T11:15:16;96216.13;;;3.42;100.00
57114;BME280;42994;51.606;9.988;2023-01-16T11:18:00;96209.38;;;3.46;100.00
57114;BME280;42994;51.606;9.988;2023-01-16T11:20:45;96213.19;;;3.50;100.00
57114;BME280;42994;51.606;9.988;2023-01-16T11:23:18;96208.94;;;3.49;100.00
57114;BME280;42994;51.606;9.988;2023-01-16T11:25:48;96203.16;;;3.59;100.00
57114;BME280;42994;51.606;9.988;2023-01-16T11:28:19;96202.34;;;3.58;100.00
57114;BME280;42994;51.606;9.988;2023-01-16T11:30:48;96214.34;;;3.61;100.00
57114;BME280;42994;51.606;9.988;2023-01-16T11:33:19;96207.22;;;3.61;100.00
57114;BME280;42994;51.606;9.988;2023-01-16T11:35:52;96193.59;;;3.58;100.00
57114;BME280;42994;51.606;9.988;2023-01-16T11:38:21;96185.28;;;3.54;100.00
57114;BME280;42994;51.606;9.988;2023-01-16T11:40:52;96173.63;;;3.55;100.00
57114;BME280;42994;51.606;9.988;2023-01-16T11:43:22;96163.81;;;3.62;100.00
57114;BME280;42994;51.606;9.988;2023-01-16T11:46:24;96155.09;;;3.55;100.00
57114;BME280;42994;51.606;9.988;2023-01-16T11:48:53;96156.91;;;3.61;100.00
57114;BME280;42994;51.606;9.988;2023-01-16T11:51:24;96143.66;;;3.61;100.00
57114;BME280;42994;51.606;9.988;2023-01-16T11:53:54;96135.47;;;3.63;100.00
57114;BME280;42994;51.606;9.988;2023-01-16T11:56:39;96144.84;;;3.65;100.00
57114;BME280;42994;51.606;9.988;2023-01-16T11:59:22;96141.13;;;3.66;100.00
57114;BME280;42994;51.606;9.988;2023-01-16T12:05:48;96137.03;;;3.71;100.00
57114;BME280;42994;51.606;9.988;2023-01-16T12:08:33;96129.09;;;3.71;100.00
57114;BME280;42994;51.606;9.988;2023-01-16T12:11:05;96133.72;;;3.75;100.00
57114;BME280;42994;51.606;9.988;2023-01-16T12:13:39;96119.09;;;3.73;100.00
57114;BME280;42994;51.606;9.988;2023-01-16T12:16:33;96120.91;;;3.72;100.00
57114;BME280;42994;51.606;9.988;2023-01-16T12:19:17;96111.94;;;3.73;100.00
57114;BME280;42994;51.606;9.988;2023-01-16T12:21:54;96110.19;;;3.67;100.00
57114;BME280;42994;51.606;9.988;2023-01-16T12:24:32;96090.38;;;3.70;100.00
57114;BME280;42994;51.606;9.988;2023-01-16T12:27:11;96088.16;;;3.66;100.00
57114;BME280;42994;51.606;9.988;2023-01-16T12:29:55;96080.38;;;3.72;100.00
57114;BME280;42994;51.606;9.988;2023-01-16T12:32:34;96078.03;;;3.82;100.00
57114;BME280;42994;51.606;9.988;2023-01-16T12:35:17;96074.22;;;3.78;100.00
57114;BME280;42994;51.606;9.988;2023-01-16T12:38:07;96068.44;;;3.81;100.00
57114;BME280;42994;51.606;9.988;2023-01-16T12:41:00;96072.13;;;3.80;100.00
57114;BME280;42994;51.606;9.988;2023-01-16T12:43:51;96056.31;;;3.73;100.00
57114;BME280;42994;51.606;9.988;2023-01-16T12:46:24;96060.34;;;3.76;100.00
57114;BME280;42994;51.606;9.988;2023-01-16T12:49:04;96061.28;;;3.81;100.00
57114;BME280;42994;51.606;9.988;2023-01-16T12:51:45;96052.84;;;3.73;100.00
57114;BME280;42994;51.606;9.988;2023-01-16T12:54:25;96055.19;;;3.62;100.00
57114;BME280;42994;51.606;9.988;2023-01-16T12:57:07;96034.91;;;3.56;100.00
57114;BME280;42994;51.606;9.988;2023-01-16T12:59:39;96039.16;;;3.57;100.00
57114;BME280;42994;51.606;9.988;2023-01-16T13:02:22;96025.47;;;3.60;100.00
57114;BME280;42994;51.606;9.988;2023-01-16T13:04:56;96036.28;;;3.59;100.00
57114;BME280;42994;51.606;9.988;2023-01-16T13:07:25;96017.81;;;3.52;100.00
57114;BME280;42994;51.606;9.988;2023-01-16T13:09:58;96038.63;;;3.49;100.00
57114;BME280;42994;51.606;9.988;2023-01-16T13:12:41;96035.69;;;3.38;100.00
57114;BME280;42994;51.606;9.988;2023-01-16T13:15:29;96014.34;;;3.33;100.00
57114;BME280;42994;51.606;9.988;2023-01-16T13:18:01;96021.03;;;3.17;100.00
57114;BME280;42994;51.606;9.988;2023-01-16T13:20:33;96018.53;;;3.22;100.00
57114;BME280;42994;51.606;9.988;2023-01-16T13:23:03;96007.66;;;3.12;100.00
57114;BME280;42994;51.606;9.988;2023-01-16T13:25:33;96013.38;;;3.09;100.00
57114;BME280;42994;51.606;9.988;2023-01-16T13:28:06;96015.59;;;3.12;100.00
57114;BME280;42994;51.606;9.988;2023-01-16T13:30:34;96009.56;;;3.05;100.00
57114;BME280;42994;51.606;9.988;2023-01-16T13:33:03;95997.78;;;3.01;100.00